Time;durP1;ratioP1;P1;durP2;ratioP2;P2;SDS_P1;SDS_P2;PMS_P1;PMS_P2;Temp;Humidity;BMP_temperature;BMP_pressure;BME280_temperature;BME280_humidity;BME280_pressure;Samples;Min_cycle;Max_cycle;Signal;HPM_P1;HPM_P2
2023/04/11 00:02:23;;;;;;;4.22;1.00;;;7.70;99.90;;;;;;5054143;28;20037;-64
2023/04/11 00:04:53;;;;;;;3.30;0.70;;;7.80;99.90;;;;;;5066384;28;20033;-64
2023/04/11 00:07:19;;;;;;;4.00;0.98;;;7.80;99.90;;;;;;5082595;28;20417;-64
2023/04/11 00:09:45;;;;;;;4.72;1.27;;;7.80;99.90;;;;;;5075299;28;20051;-63
2023/04/11 00:12:10;;;;;;;4.20;1.00;;;7.80;99.90;;;;;;5080837;28;20044;-63
2023/04/11 00:14:37;;;;;;;4.03;1.27;;;7.90;99.90;;;;;;5071888;28;20387;-63
2023/04/11 00:17:04;;;;;;;4.32;1.00;;;8.00;99.90;;;;;;5073186;28;20094;-62
2023/04/11 00:19:32;;;;;;;6.45;1.10;;;7.90;99.90;;;;;;5073140;28;20078;-63
2023/04/11 00:21:57;;;;;;;2.03;0.85;;;7.90;99.90;;;;;;5055018;28;20032;-63
2023/04/11 00:24:26;;;;;;;4.00;0.88;;;7.90;99.90;;;;;;5077943;28;20455;-62
2023/04/11 00:26:55;;;;;;;5.47;1.20;;;7.90;99.90;;;;;;5080901;28;20036;-63
2023/04/11 00:29:21;;;;;;;3.08;0.90;;;7.80;99.90;;;;;;5073592;28;20056;-62
2023/04/11 00:31:46;;;;;;;5.25;1.20;;;7.80;99.90;;;;;;5077765;28;20121;-62
2023/04/11 00:34:12;;;;;;;3.28;0.90;;;7.80;99.90;;;;;;5072261;28;20583;-62
2023/04/11 00:36:40;;;;;;;4.72;1.20;;;7.80;99.90;;;;;;5069780;28;20044;-63
2023/04/11 00:39:07;;;;;;;5.03;1.23;;;7.70;99.90;;;;;;5078838;28;20045;-62
2023/04/11 00:41:33;;;;;;;5.15;1.10;;;7.70;99.90;;;;;;5072939;28;20055;-63
2023/04/11 00:43:59;;;;;;;5.45;1.13;;;7.70;99.90;;;;;;5072385;28;20131;-62
2023/04/11 00:46:24;;;;;;;4.25;1.00;;;7.70;99.90;;;;;;5073016;28;20037;-62
2023/04/11 00:48:50;;;;;;;2.78;1.25;;;7.70;99.90;;;;;;5073137;28;20078;-62
2023/04/11 00:51:18;;;;;;;4.93;1.08;;;7.70;99.90;;;;;;5072306;28;20040;-62
2023/04/11 00:53:44;;;;;;;5.47;1.10;;;7.60;99.90;;;;;;5084867;28;20044;-62
2023/04/11 00:56:11;;;;;;;3.22;1.20;;;7.60;99.90;;;;;;5080113;28;20047;-62
2023/04/11 00:58:37;;;;;;;4.60;1.20;;;7.60;99.90;;;;;;5072479;28;20044;-62
2023/04/11 01:01:10;;;;;;;5.10;1.52;;;7.60;99.90;;;;;;5071030;28;20528;-61
2023/04/11 01:03:38;;;;;;;4.90;1.30;;;7.60;99.90;;;;;;5054088;28;20082;-63
2023/04/11 01:06:10;;;;;;;3.97;1.13;;;7.60;99.90;;;;;;5062172;28;20040;-63
2023/04/11 01:08:36;;;;;;;5.30;1.27;;;7.50;99.90;;;;;;5069445;28;20033;-62
2023/04/11 01:11:03;;;;;;;4.45;1.08;;;7.50;99.90;;;;;;5069636;28;20041;-62
2023/04/11 01:13:33;;;;;;;3.30;1.45;;;7.50;99.90;;;;;;5072400;28;20119;-62
2023/04/11 01:15:59;;;;;;;4.97;2.17;;;7.50;99.90;;;;;;5071670;28;20071;-62
2023/04/11 01:18:25;;;;;;;9.10;2.65;;;7.50;99.90;;;;;;5074003;28;20068;-62
2023/04/11 01:20:51;;;;;;;11.65;4.05;;;7.40;99.90;;;;;;5076548;28;20078;-62
2023/04/11 01:23:24;;;;;;;9.18;5.18;;;7.40;99.90;;;;;;5080832;28;20124;-62
2023/04/11 01:25:50;;;;;;;12.95;6.03;;;7.40;99.90;;;;;;5072588;28;20032;-62
2023/04/11 01:28:17;;;;;;;13.13;6.20;;;7.40;99.90;;;;;;5071586;28;20040;-62
2023/04/11 01:30:43;;;;;;;13.55;6.53;;;7.40;99.90;;;;;;5072802;28;20481;-62
2023/04/11 01:33:09;;;;;;;12.07;5.13;;;7.40;99.90;;;;;;5080572;28;20048;-62
2023/04/11 01:35:35;;;;;;;13.95;4.88;;;7.30;99.90;;;;;;5078167;28;20040;-62
2023/04/11 01:38:02;;;;;;;12.45;4.53;;;7.30;99.90;;;;;;5077646;28;20520;-63
2023/04/11 01:40:28;;;;;;;9.75;4.53;;;7.30;99.90;;;;;;5085576;22;20040;-63
2023/04/11 01:42:54;;;;;;;12.40;4.50;;;7.30;99.90;;;;;;5072519;28;20040;-63
2023/04/11 01:45:21;;;;;;;13.82;5.00;;;7.30;99.90;;;;;;5071598;28;20081;-63
2023/04/11 01:47:46;;;;;;;11.73;5.25;;;7.30;99.90;;;;;;5083513;28;20509;-63
2023/04/11 01:50:12;;;;;;;13.00;5.15;;;7.30;99.90;;;;;;5077635;28;20040;-63
2023/04/11 01:52:37;;;;;;;14.02;4.88;;;7.30;99.90;;;;;;5067194;28;20040;-63
2023/04/11 01:55:03;;;;;;;9.32;4.20;;;7.40;99.90;;;;;;5070520;28;20036;-63
2023/04/11 01:57:29;;;;;;;14.50;4.43;;;7.40;99.90;;;;;;5062002;28;20116;-63
2023/04/11 01:59:55;;;;;;;13.93;5.13;;;7.40;99.90;;;;;;5044356;28;20686;-64
2023/04/11 02:02:20;;;;;;;8.25;3.85;;;7.50;99.90;;;;;;5080305;28;20099;-65
2023/04/11 02:04:46;;;;;;;10.68;3.33;;;7.40;99.90;;;;;;5068155;28;20056;-65
2023/04/11 02:07:12;;;;;;;11.57;3.17;;;7.40;99.90;;;;;;5068390;28;20413;-65
2023/04/11 02:09:37;;;;;;;7.25;3.00;;;7.50;99.90;;;;;;5070696;28;20029;-64
2023/04/11 02:12:03;;;;;;;7.95;3.15;;;7.50;99.90;;;;;;5045651;28;20041;-64
2023/04/11 02:14:41;;;;;;;9.27;3.45;;;7.50;99.90;;;;;;5070201;28;20032;-64
2023/04/11 02:17:08;;;;;;;9.88;3.42;;;7.50;99.90;;;;;;5064101;28;20037;-64
2023/04/11 02:19:34;;;;;;;9.25;3.20;;;7.50;99.90;;;;;;5072329;28;20066;-64
2023/04/11 02:22:00;;;;;;;12.23;3.17;;;7.40;99.90;;;;;;5091472;28;20043;-64
2023/04/11 02:24:27;;;;;;;8.80;3.15;;;7.50;99.90;;;;;;5080105;28;20029;-64
2023/04/11 02:26:53;;;;;;;11.35;3.47;;;7.50;99.90;;;;;;5068676;28;20420;-64
2023/04/11 02:29:18;;;;;;;11.82;4.00;;;7.50;99.90;;;;;;5067667;28;20032;-64
2023/04/11 02:31:46;;;;;;;12.43;3.85;;;7.50;99.90;;;;;;5071082;28;20417;-64
2023/04/11 02:34:12;;;;;;;10.50;3.78;;;7.50;99.90;;;;;;5072754;28;20040;-63
2023/04/11 02:36:37;;;;;;;12.50;4.00;;;7.50;99.90;;;;;;5067010;28;20138;-64
2023/04/11 02:39:03;;;;;;;11.52;3.80;;;7.50;99.90;;;;;;5061665;28;20532;-64
2023/04/11 02:41:28;;;;;;;12.48;3.67;;;7.50;99.90;;;;;;5060994;28;20093;-65
2023/04/11 02:43:54;;;;;;;12.20;3.67;;;7.50;99.90;;;;;;5070353;28;20028;-65
2023/04/11 02:46:20;;;;;;;9.68;3.45;;;7.50;99.90;;;;;;5070640;28;20101;-66
2023/04/11 02:48:46;;;;;;;11.43;3.88;;;7.50;99.90;;;;;;5066320;28;20219;-65
2023/04/11 02:51:11;;;;;;;17.75;3.53;;;7.50;99.90;;;;;;5078624;28;20127;-65
2023/04/11 02:53:37;;;;;;;13.68;3.17;;;7.50;99.90;;;;;;5080214;28;20497;-65
2023/04/11 02:56:03;;;;;;;7.40;2.80;;;7.60;99.90;;;;;;5065251;28;20067;-65
2023/04/11 02:58:29;;;;;;;9.80;2.90;;;7.60;99.90;;;;;;5070186;28;20514;-65
2023/04/11 03:00:55;;;;;;;11.27;3.40;;;7.60;99.90;;;;;;5077982;28;20098;-64
2023/04/11 03:03:20;;;;;;;14.27;2.75;;;7.70;99.90;;;;;;5070434;28;20516;-65
2023/04/11 03:05:46;;;;;;;13.85;3.33;;;7.70;99.90;;;;;;5083673;28;20039;-65
2023/04/11 03:08:11;;;;;;;16.55;3.38;;;7.80;99.90;;;;;;5068820;28;20042;-65
2023/04/11 03:10:37;;;;;;;14.90;2.83;;;7.80;99.90;;;;;;5068419;28;20033;-65
2023/04/11 03:13:02;;;;;;;14.25;2.80;;;7.80;99.90;;;;;;5052747;28;20052;-64
2023/04/11 03:15:31;;;;;;;12.60;3.13;;;7.80;99.90;;;;;;5076333;28;20094;-64
2023/04/11 03:17:56;;;;;;;12.60;3.40;;;7.80;99.90;;;;;;5051415;28;20409;-64
2023/04/11 03:20:22;;;;;;;9.23;2.70;;;7.80;99.90;;;;;;5083427;28;20048;-64
2023/04/11 03:22:48;;;;;;;13.07;2.80;;;7.90;99.90;;;;;;5062782;28;20119;-64
2023/04/11 03:25:14;;;;;;;17.17;3.03;;;7.90;99.90;;;;;;5070752;28;20115;-64
2023/04/11 03:27:40;;;;;;;13.18;3.53;;;7.90;99.90;;;;;;5084474;28;20042;-64
2023/04/11 03:30:06;;;;;;;13.77;3.20;;;7.90;99.90;;;;;;5074087;28;20115;-64
2023/04/11 03:32:32;;;;;;;14.05;2.95;;;7.90;99.90;;;;;;5072753;28;20048;-64
2023/04/11 03:34:59;;;;;;;15.88;2.80;;;7.90;99.90;;;;;;5075006;28;20124;-64
2023/04/11 03:37:25;;;;;;;14.75;2.80;;;7.90;99.90;;;;;;5073104;28;20449;-64
2023/04/11 03:39:50;;;;;;;15.98;3.00;;;7.90;99.90;;;;;;5072447;28;20115;-64
2023/04/11 03:42:16;;;;;;;11.35;2.85;;;8.00;99.90;;;;;;5086716;28;20043;-64
2023/04/11 03:44:41;;;;;;;12.75;2.95;;;8.00;99.90;;;;;;5071319;28;20096;-63
2023/04/11 03:47:07;;;;;;;13.40;2.90;;;8.00;99.90;;;;;;5073526;28;20036;-64
2023/04/11 03:49:32;;;;;;;14.70;2.80;;;8.00;99.90;;;;;;5070921;28;20111;-63
2023/04/11 03:51:58;;;;;;;15.00;3.03;;;8.00;99.90;;;;;;5079462;28;20139;-64
2023/04/11 03:54:24;;;;;;;10.38;2.63;;;8.10;99.90;;;;;;5067223;28;20064;-64
2023/04/11 03:56:49;;;;;;;11.15;2.50;;;8.10;99.90;;;;;;5073751;28;20040;-64
2023/04/11 03:59:15;;;;;;;9.15;2.38;;;8.10;99.90;;;;;;5074006;28;20036;-64
2023/04/11 04:01:40;;;;;;;9.85;2.10;;;8.10;99.90;;;;;;5070355;28;20514;-64
2023/04/11 04:04:06;;;;;;;9.85;2.22;;;8.10;99.90;;;;;;5071616;28;20036;-64
2023/04/11 04:06:31;;;;;;;8.32;2.08;;;8.10;99.90;;;;;;5073203;28;20422;-64
2023/04/11 04:08:58;;;;;;;14.77;3.03;;;8.10;99.90;;;;;;5080137;28;20045;-64
2023/04/11 04:11:24;;;;;;;11.57;2.38;;;8.10;99.90;;;;;;5080845;28;20123;-64
2023/04/11 04:13:49;;;;;;;9.73;1.98;;;8.10;99.90;;;;;;5085349;28;20179;-64
2023/04/11 04:16:16;;;;;;;10.43;2.10;;;8.10;99.90;;;;;;5073206;28;20093;-64
2023/04/11 04:18:42;;;;;;;10.25;2.00;;;8.10;99.90;;;;;;5076180;28;20048;-64
2023/04/11 04:21:07;;;;;;;12.93;2.25;;;8.10;99.90;;;;;;5071031;28;20047;-64
2023/04/11 04:23:34;;;;;;;11.85;2.30;;;8.10;99.90;;;;;;5062416;28;20063;-64
2023/04/11 04:26:01;;;;;;;10.90;2.25;;;8.20;99.90;;;;;;5060257;28;20101;-64
2023/04/11 04:28:27;;;;;;;8.82;1.80;;;8.20;99.90;;;;;;5078885;28;20042;-64
2023/04/11 04:30:53;;;;;;;17.10;2.75;;;8.20;99.90;;;;;;5071319;28;20513;-64
2023/04/11 04:33:21;;;;;;;6.05;2.05;;;8.20;99.90;;;;;;5072252;28;20107;-64
2023/04/11 04:35:47;;;;;;;9.50;2.30;;;8.20;99.90;;;;;;5071143;28;20051;-64
2023/04/11 04:38:16;;;;;;;10.77;1.98;;;8.20;99.90;;;;;;5070784;28;20036;-64
2023/04/11 04:40:44;;;;;;;10.07;2.13;;;8.20;99.90;;;;;;5036565;28;20528;-64
2023/04/11 04:43:17;;;;;;;8.80;2.35;;;8.20;99.90;;;;;;5063668;28;20037;-64
2023/04/11 04:45:45;;;;;;;14.93;2.40;;;8.20;99.90;;;;;;5068599;28;20375;-64
2023/04/11 04:48:16;;;;;;;13.93;2.22;;;8.20;99.90;;;;;;5053123;28;20558;-64
2023/04/11 04:50:42;;;;;;;10.80;2.43;;;8.30;99.90;;;;;;5068131;28;20120;-64
2023/04/11 04:53:07;;;;;;;9.45;2.20;;;8.30;99.90;;;;;;5070033;28;20326;-64
2023/04/11 04:55:34;;;;;;;8.70;2.30;;;8.30;99.90;;;;;;5086051;28;20067;-64
2023/04/11 04:58:00;;;;;;;11.00;2.70;;;8.30;99.90;;;;;;5072477;28;20040;-64
2023/04/11 05:00:25;;;;;;;10.35;2.42;;;8.30;99.90;;;;;;5064722;28;20048;-64
2023/04/11 05:02:53;;;;;;;6.85;2.67;;;8.30;99.90;;;;;;5072533;28;20098;-64
2023/04/11 05:05:19;;;;;;;11.55;2.53;;;8.20;99.90;;;;;;5072788;28;20032;-64
2023/04/11 05:07:45;;;;;;;6.57;2.70;;;8.20;99.90;;;;;;5070451;28;20035;-64
2023/04/11 05:10:10;;;;;;;13.88;2.65;;;8.20;99.90;;;;;;5073086;28;20051;-64
2023/04/11 05:12:36;;;;;;;12.20;2.90;;;8.30;99.90;;;;;;5072472;28;20041;-63
2023/04/11 05:15:02;;;;;;;5.57;2.10;;;8.20;99.90;;;;;;5071264;28;20045;-64
2023/04/11 05:17:28;;;;;;;8.02;2.42;;;8.20;99.90;;;;;;5073194;28;20036;-64
2023/04/11 05:19:54;;;;;;;7.35;2.30;;;8.30;99.90;;;;;;5082579;28;20043;-64
2023/04/11 05:22:19;;;;;;;6.75;2.05;;;8.20;99.90;;;;;;5074171;28;20036;-64
2023/04/11 05:24:45;;;;;;;8.77;2.55;;;8.30;99.90;;;;;;5071955;28;20064;-64
2023/04/11 05:27:12;;;;;;;8.45;2.40;;;8.30;99.90;;;;;;5064114;28;20028;-64
2023/04/11 05:29:38;;;;;;;8.95;2.53;;;8.30;99.90;;;;;;5071296;28;20521;-64
2023/04/11 05:32:03;;;;;;;8.35;2.72;;;8.30;99.90;;;;;;5069272;28;20036;-64
2023/04/11 05:34:30;;;;;;;8.82;2.10;;;8.30;99.90;;;;;;5068915;28;20037;-64
2023/04/11 05:36:56;;;;;;;7.10;2.13;;;8.30;99.90;;;;;;5066355;28;20041;-64
2023/04/11 05:39:21;;;;;;;6.78;2.10;;;8.30;99.90;;;;;;5078258;28;20142;-64
2023/04/11 05:41:47;;;;;;;10.07;2.70;;;8.20;99.90;;;;;;5073462;28;20044;-64
2023/04/11 05:44:12;;;;;;;5.45;1.90;;;8.20;99.90;;;;;;5068001;28;20033;-64
2023/04/11 05:46:38;;;;;;;8.73;2.00;;;8.20;99.90;;;;;;5078625;28;20040;-64
2023/04/11 05:49:03;;;;;;;4.75;2.05;;;8.20;99.90;;;;;;5046788;28;20451;-64
2023/04/11 05:51:29;;;;;;;11.35;2.20;;;8.20;99.90;;;;;;5080806;28;20047;-64
2023/04/11 05:53:55;;;;;;;8.85;2.10;;;8.30;99.90;;;;;;5078675;28;20040;-64
2023/04/11 05:56:20;;;;;;;7.28;2.45;;;8.30;99.90;;;;;;5065009;28;20124;-64
2023/04/11 05:58:46;;;;;;;5.53;1.67;;;8.30;99.90;;;;;;5069843;28;20036;-63
2023/04/11 06:01:13;;;;;;;8.68;2.03;;;8.30;99.90;;;;;;5070820;28;20080;-64
2023/04/11 06:03:38;;;;;;;6.72;2.00;;;8.30;99.90;;;;;;5070841;28;20055;-64
2023/04/11 06:06:04;;;;;;;8.52;2.00;;;8.30;99.90;;;;;;5075342;28;20036;-64
2023/04/11 06:08:30;;;;;;;5.78;2.25;;;8.40;99.90;;;;;;5061995;28;20028;-64
2023/04/11 06:10:56;;;;;;;8.68;1.70;;;8.40;99.90;;;;;;5070054;28;20036;-64
2023/04/11 06:13:21;;;;;;;8.63;2.10;;;8.40;99.90;;;;;;5070938;28;20466;-63
2023/04/11 06:15:47;;;;;;;6.07;1.92;;;8.40;99.90;;;;;;5067249;28;20040;-63
2023/04/11 06:18:12;;;;;;;5.80;1.98;;;8.40;99.90;;;;;;5059610;28;20119;-64
2023/04/11 06:20:38;;;;;;;8.27;2.25;;;8.40;99.90;;;;;;5068566;28;20053;-63
2023/04/11 06:23:04;;;;;;;3.80;1.70;;;8.50;99.90;;;;;;5078416;28;20446;-63
2023/04/11 06:25:29;;;;;;;10.77;2.10;;;8.50;99.90;;;;;;5064930;28;20028;-63
2023/04/11 06:27:55;;;;;;;10.52;2.50;;;8.50;99.90;;;;;;5075622;28;20035;-63
2023/04/11 06:30:20;;;;;;;7.35;1.70;;;8.50;99.90;;;;;;5064455;28;20033;-63
2023/04/11 06:32:46;;;;;;;8.00;1.90;;;8.50;99.90;;;;;;5074912;28;20046;-64
2023/04/11 06:35:11;;;;;;;9.05;2.20;;;8.50;99.90;;;;;;5074862;28;20511;-64
2023/04/11 06:37:37;;;;;;;6.03;1.90;;;8.60;99.90;;;;;;5068111;28;20115;-64
2023/04/11 06:40:04;;;;;;;6.50;1.95;;;8.60;99.90;;;;;;5064690;28;20465;-64
2023/04/11 06:42:30;;;;;;;5.85;2.05;;;8.60;99.90;;;;;;5061380;28;20040;-64
2023/04/11 06:44:56;;;;;;;7.53;1.95;;;8.70;99.90;;;;;;5060644;28;20047;-64
2023/04/11 06:47:21;;;;;;;6.65;1.60;;;8.70;99.90;;;;;;5062951;28;20039;-63
2023/04/11 06:49:47;;;;;;;6.45;2.03;;;8.60;99.90;;;;;;5075458;28;20085;-63
2023/04/11 06:52:13;;;;;;;8.65;2.00;;;8.60;99.90;;;;;;5078164;28;20028;-63
2023/04/11 06:54:39;;;;;;;8.02;2.10;;;8.60;99.90;;;;;;5069115;28;20031;-64
2023/04/11 06:57:05;;;;;;;6.95;1.92;;;8.60;99.90;;;;;;5059691;28;20045;-64
2023/04/11 06:59:31;;;;;;;7.82;1.95;;;8.60;99.90;;;;;;5061469;28;20049;-64
2023/04/11 07:01:57;;;;;;;3.92;1.70;;;8.60;99.90;;;;;;5066654;28;20086;-64
2023/04/11 07:04:23;;;;;;;9.63;1.95;;;8.60;99.90;;;;;;5071069;28;20146;-64
2023/04/11 07:06:48;;;;;;;7.15;1.63;;;8.60;99.90;;;;;;5054696;28;20123;-64
2023/04/11 07:09:14;;;;;;;10.93;2.03;;;8.60;99.90;;;;;;5079026;28;20066;-64
2023/04/11 07:11:40;;;;;;;10.82;1.75;;;8.70;99.90;;;;;;5072476;28;20040;-64
2023/04/11 07:14:06;;;;;;;6.88;1.90;;;8.70;99.90;;;;;;5057681;28;20085;-64
2023/04/11 07:16:31;;;;;;;8.52;1.83;;;8.70;99.90;;;;;;5076712;28;20121;-64
2023/04/11 07:18:58;;;;;;;8.68;2.28;;;8.70;99.90;;;;;;5072123;28;20036;-64
2023/04/11 07:21:25;;;;;;;6.30;1.77;;;8.70;99.90;;;;;;5058200;28;20076;-64
2023/04/11 07:23:52;;;;;;;7.75;1.80;;;8.70;99.90;;;;;;5055432;28;20033;-63
2023/04/11 07:26:17;;;;;;;8.90;2.00;;;8.80;99.90;;;;;;5072301;28;20563;-63
2023/04/11 07:28:43;;;;;;;11.73;2.75;;;8.90;99.90;;;;;;5094905;28;20043;-64
2023/04/11 07:31:12;;;;;;;13.82;1.92;;;9.10;99.90;;;;;;5076819;28;20067;-63
2023/04/11 07:33:41;;;;;;;8.27;1.83;;;9.20;99.90;;;;;;5084422;28;20033;-63
2023/04/11 07:36:07;;;;;;;10.10;1.90;;;9.30;99.90;;;;;;5077079;28;20036;-63
2023/04/11 07:41:11;;;;;;;8.00;1.98;;;9.30;99.90;;;;;;5058872;28;20135;-61
2023/04/11 07:43:37;;;;;;;6.35;1.85;;;9.20;99.90;;;;;;5064721;28;20550;-60
2023/04/11 07:46:02;;;;;;;8.27;1.70;;;9.10;99.90;;;;;;5065456;28;20037;-60
2023/04/11 07:48:29;;;;;;;7.35;1.58;;;9.10;99.90;;;;;;5056246;28;20479;-61
2023/04/11 07:50:55;;;;;;;9.20;2.45;;;9.10;99.90;;;;;;5035823;28;20055;-60
2023/04/11 07:53:21;;;;;;;7.63;2.25;;;9.10;99.90;;;;;;5048919;28;20033;-61
2023/04/11 07:55:47;;;;;;;9.73;1.70;;;9.10;99.90;;;;;;5070181;28;20036;-61
2023/04/11 07:58:12;;;;;;;9.07;1.75;;;9.10;99.90;;;;;;5054335;28;20033;-61
2023/04/11 08:00:38;;;;;;;9.02;1.33;;;9.20;99.90;;;;;;5053514;28;20072;-61
2023/04/11 08:03:05;;;;;;;10.27;1.92;;;9.20;99.90;;;;;;5058380;28;20704;-61
2023/04/11 08:05:32;;;;;;;11.95;1.95;;;9.30;99.90;;;;;;5057402;28;20070;-62
2023/04/11 08:07:58;;;;;;;8.88;1.60;;;9.30;99.90;;;;;;5040334;28;20048;-62
2023/04/11 08:10:24;;;;;;;7.05;1.42;;;9.40;99.90;;;;;;5060228;28;20036;-61
2023/04/11 08:12:49;;;;;;;10.55;1.73;;;9.50;99.90;;;;;;5050699;28;20521;-61
2023/04/11 08:15:15;;;;;;;6.20;1.58;;;9.50;99.90;;;;;;5057349;28;20036;-62
2023/04/11 08:17:42;;;;;;;8.05;1.90;;;9.60;99.90;;;;;;5041659;28;20514;-61
2023/04/11 08:20:10;;;;;;;8.98;1.98;;;9.70;99.90;;;;;;5066668;28;20047;-61
2023/04/11 08:22:40;;;;;;;6.85;1.60;;;9.70;99.90;;;;;;5064453;28;20051;-61
2023/04/11 08:25:11;;;;;;;9.82;2.03;;;9.80;99.90;;;;;;5048137;28;20079;-61
2023/04/11 08:27:37;;;;;;;9.60;2.20;;;9.80;99.90;;;;;;5046062;28;20037;-61
2023/04/11 08:30:05;;;;;;;5.50;1.77;;;9.80;99.90;;;;;;5062281;28;20447;-61
2023/04/11 08:32:30;;;;;;;6.80;2.05;;;9.80;99.90;;;;;;5070877;28;20044;-62
2023/04/11 08:34:56;;;;;;;8.52;2.08;;;10.00;99.90;;;;;;5037009;28;20380;-61
2023/04/11 08:37:22;;;;;;;9.85;1.80;;;10.10;99.90;;;;;;5053848;28;20041;-61
2023/04/11 08:39:47;;;;;;;7.35;1.60;;;10.20;99.90;;;;;;5051845;28;20032;-61
2023/04/11 08:42:27;;;;;;;10.40;1.73;;;10.20;99.90;;;;;;5053352;28;20068;-61
2023/04/11 08:44:59;;;;;;;10.27;1.80;;;10.30;99.90;;;;;;5043560;28;20108;-62
2023/04/11 08:47:25;;;;;;;12.80;1.63;;;10.40;99.90;;;;;;5053305;28;20037;-61
2023/04/11 08:49:51;;;;;;;6.97;1.95;;;10.40;99.90;;;;;;5066648;28;20025;-61
2023/04/11 08:52:18;;;;;;;10.20;2.45;;;10.40;99.90;;;;;;5073340;28;20040;-61
2023/04/11 08:54:47;;;;;;;8.77;2.03;;;10.40;99.90;;;;;;5043231;28;20123;-61
2023/04/11 08:57:27;;;;;;;10.38;1.77;;;10.40;99.90;;;;;;5033209;28;20048;-61
2023/04/11 08:59:54;;;;;;;8.93;2.10;;;10.30;99.90;;;;;;5037655;28;20029;-61
2023/04/11 09:02:20;;;;;;;7.28;1.55;;;10.40;99.90;;;;;;5027452;28;20037;-61
2023/04/11 09:04:46;;;;;;;8.48;1.73;;;10.60;99.90;;;;;;5048128;28;20032;-60
2023/04/11 09:07:12;;;;;;;5.32;1.67;;;10.60;99.90;;;;;;5054479;28;20041;-61
2023/04/11 09:09:38;;;;;;;8.85;2.17;;;10.50;99.90;;;;;;5043147;28;20040;-61
2023/04/11 09:12:04;;;;;;;6.25;1.70;;;10.50;99.90;;;;;;5046579;28;20040;-61
2023/04/11 09:14:30;;;;;;;8.88;2.03;;;10.60;99.90;;;;;;5045573;28;20038;-61
2023/04/11 09:16:57;;;;;;;8.98;2.22;;;10.80;99.90;;;;;;5042226;28;20064;-61
2023/04/11 09:19:24;;;;;;;7.53;1.90;;;10.90;99.90;;;;;;5039319;28;20032;-61
2023/04/11 09:21:50;;;;;;;8.27;1.92;;;10.80;99.90;;;;;;5055491;28;20028;-61
2023/04/11 09:24:16;;;;;;;7.03;1.27;;;10.60;99.90;;;;;;5052829;28;20040;-61
2023/04/11 09:26:42;;;;;;;4.82;1.10;;;10.30;99.90;;;;;;5047405;28;20131;-61
2023/04/11 09:29:07;;;;;;;9.32;1.40;;;10.10;99.90;;;;;;5044747;28;20143;-61
2023/04/11 09:31:41;;;;;;;7.03;1.38;;;10.10;99.90;;;;;;5047465;28;20029;-61
2023/04/11 09:34:06;;;;;;;7.18;1.70;;;10.30;99.90;;;;;;5051818;28;20148;-61
2023/04/11 09:36:32;;;;;;;6.72;1.67;;;10.50;99.90;;;;;;5062107;28;20124;-61
2023/04/11 09:38:58;;;;;;;7.45;1.63;;;10.50;99.90;;;;;;5046353;28;20067;-62
2023/04/11 09:41:37;;;;;;;6.40;1.75;;;10.40;99.90;;;;;;5042297;28;20040;-61
2023/04/11 09:44:03;;;;;;;6.60;1.95;;;10.20;99.90;;;;;;5049862;28;20025;-61
2023/04/11 09:46:29;;;;;;;9.48;1.90;;;10.20;99.90;;;;;;5041224;28;20029;-62
2023/04/11 09:48:55;;;;;;;6.95;1.83;;;10.30;99.90;;;;;;5047767;28;20045;-61
2023/04/11 09:51:21;;;;;;;5.65;1.70;;;10.50;99.90;;;;;;5043169;28;20045;-61
2023/04/11 09:53:47;;;;;;;8.10;1.45;;;10.60;99.90;;;;;;5054874;28;20040;-61
2023/04/11 09:56:13;;;;;;;10.48;1.67;;;10.80;99.90;;;;;;5047830;28;20143;-62
2023/04/11 09:58:39;;;;;;;5.25;1.30;;;10.90;99.90;;;;;;5048989;28;20564;-61
2023/04/11 10:01:09;;;;;;;9.38;2.15;;;10.80;99.90;;;;;;5050837;28;20052;-61
2023/04/11 10:03:37;;;;;;;10.52;1.67;;;10.60;99.90;;;;;;5047016;28;20435;-61
2023/04/11 10:06:11;;;;;;;6.32;1.52;;;10.80;99.90;;;;;;5048792;28;20037;-61
2023/04/11 10:08:37;;;;;;;9.80;2.17;;;11.00;99.90;;;;;;5050903;28;20040;-61
2023/04/11 10:11:06;;;;;;;5.57;1.42;;;11.20;99.90;;;;;;5040397;28;20113;-61
2023/04/11 10:13:44;;;;;;;6.57;1.40;;;11.10;99.90;;;;;;5032979;28;20200;-61
2023/04/11 10:16:15;;;;;;;3.45;1.00;;;10.60;99.90;;;;;;5029751;28;20637;-62
2023/04/11 10:18:49;;;;;;;5.00;1.50;;;10.10;99.90;;;;;;5033996;28;20445;-62
2023/04/11 10:21:31;;;;;;;5.50;1.55;;;9.70;99.90;;;;;;5045078;28;20045;-61
2023/04/11 10:24:11;;;;;;;14.68;2.00;;;9.40;99.90;;;;;;5031514;28;20052;-61
2023/04/11 10:26:50;;;;;;;9.93;1.90;;;9.40;99.90;;;;;;5050643;28;20056;-61
2023/04/11 10:29:28;;;;;;;11.18;1.95;;;9.50;99.90;;;;;;5052979;28;20038;-61
2023/04/11 10:32:20;;;;;;;12.13;1.63;;;9.50;99.90;;;;;;5046060;28;20042;-61
2023/04/11 10:34:48;;;;;;;10.68;2.17;;;9.60;99.90;;;;;;5040287;28;20414;-61
2023/04/11 10:37:15;;;;;;;8.98;1.60;;;9.60;99.90;;;;;;5051344;28;20115;-61
2023/04/11 10:39:49;;;;;;;9.07;1.95;;;9.60;99.90;;;;;;5014501;28;20052;-61
2023/04/11 10:42:34;;;;;;;7.95;2.03;;;9.70;99.90;;;;;;5041337;28;20101;-61
2023/04/11 10:45:23;;;;;;;8.30;1.80;;;9.80;99.90;;;;;;5056538;28;20044;-61
2023/04/11 10:47:57;;;;;;;10.10;1.70;;;10.00;99.90;;;;;;5050760;28;20029;-61
2023/04/11 10:50:26;;;;;;;3.67;1.15;;;10.10;99.90;;;;;;5049475;28;20033;-61
2023/04/11 10:52:52;;;;;;;6.82;2.00;;;10.20;99.90;;;;;;5049369;28;20122;-61
2023/04/11 10:55:18;;;;;;;6.72;1.30;;;10.40;99.90;;;;;;5049867;28;20494;-61
2023/04/11 10:58:06;;;;;;;5.53;1.10;;;10.60;99.90;;;;;;5049955;28;20403;-61
2023/04/11 11:00:51;;;;;;;5.38;1.27;;;10.50;99.90;;;;;;5049794;28;20487;-61
2023/04/11 11:03:23;;;;;;;6.10;1.30;;;10.40;99.90;;;;;;5032072;28;20041;-61
2023/04/11 11:06:00;;;;;;;4.93;1.23;;;10.40;99.90;;;;;;5050088;28;20029;-61
2023/04/11 11:08:29;;;;;;;8.43;1.40;;;10.60;99.90;;;;;;5050394;28;20025;-61
2023/04/11 11:11:03;;;;;;;7.25;1.40;;;10.80;99.90;;;;;;5056634;28;20045;-61
2023/04/11 11:13:45;;;;;;;6.78;1.40;;;11.10;99.90;;;;;;5040465;28;20040;-61
2023/04/11 11:16:15;;;;;;;7.60;1.70;;;11.20;99.90;;;;;;5028292;28;20430;-61
2023/04/11 11:18:45;;;;;;;10.32;1.73;;;11.40;99.90;;;;;;5057988;28;20499;-61
2023/04/11 11:21:12;;;;;;;10.40;1.75;;;11.60;99.90;;;;;;5047278;28;20041;-61
2023/04/11 11:23:37;;;;;;;6.85;1.50;;;11.70;99.90;;;;;;5031651;28;20439;-61
2023/04/11 11:26:03;;;;;;;9.57;1.67;;;11.80;99.90;;;;;;5047971;28;20075;-61
2023/04/11 11:28:28;;;;;;;8.90;2.15;;;11.90;99.90;;;;;;5044060;28;20045;-61
2023/04/11 11:30:56;;;;;;;7.93;1.30;;;12.10;99.90;;;;;;5048399;28;20047;-61
2023/04/11 11:33:23;;;;;;;10.00;1.70;;;12.20;99.90;;;;;;5048314;28;20465;-61
2023/04/11 11:35:56;;;;;;;10.45;1.83;;;12.40;99.90;;;;;;5044306;28;20032;-61
2023/04/11 11:38:25;;;;;;;6.10;1.30;;;12.40;99.90;;;;;;5048449;28;20547;-62
2023/04/11 11:40:51;;;;;;;9.35;1.48;;;12.30;99.90;;;;;;5056803;28;20120;-61
2023/04/11 11:43:17;;;;;;;9.10;1.30;;;12.30;99.90;;;;;;5049862;28;20055;-61
2023/04/11 11:45:43;;;;;;;6.65;1.50;;;12.40;99.90;;;;;;5049715;28;20457;-61
2023/04/11 11:48:22;;;;;;;7.55;1.75;;;12.50;99.90;;;;;;5044186;28;20033;-61
2023/04/11 11:50:55;;;;;;;8.90;1.63;;;12.50;99.90;;;;;;5051828;28;20044;-61
2023/04/11 11:53:21;;;;;;;11.52;1.50;;;12.30;99.90;;;;;;5035590;28;20040;-61
2023/04/11 11:55:46;;;;;;;6.57;1.70;;;12.20;99.90;;;;;;5033937;28;20044;-61
2023/04/11 11:58:12;;;;;;;6.45;1.60;;;12.10;99.90;;;;;;5048049;28;20077;-61
2023/04/11 12:00:39;;;;;;;7.65;1.80;;;12.00;99.90;;;;;;5047856;28;20037;-61
2023/04/11 12:03:08;;;;;;;7.50;1.70;;;12.00;99.90;;;;;;5031996;28;20037;-61
2023/04/11 12:05:34;;;;;;;6.55;2.10;;;12.00;99.90;;;;;;5054318;28;20065;-61
2023/04/11 12:08:03;;;;;;;7.28;1.50;;;12.00;99.90;;;;;;5057686;28;20048;-61
2023/04/11 12:10:41;;;;;;;6.25;1.52;;;12.20;99.90;;;;;;5047450;28;20041;-61
2023/04/11 12:13:14;;;;;;;8.30;1.30;;;12.40;99.90;;;;;;5046304;28;20040;-61
2023/04/11 12:15:43;;;;;;;7.35;1.20;;;12.40;99.90;;;;;;5057142;28;20045;-61
2023/04/11 12:18:08;;;;;;;8.50;1.60;;;12.50;99.90;;;;;;5033328;28;20045;-61
2023/04/11 12:20:34;;;;;;;8.93;1.70;;;12.50;99.90;;;;;;5052513;28;20052;-61
2023/04/11 12:23:00;;;;;;;4.15;1.13;;;12.60;99.90;;;;;;5052556;28;20486;-61
2023/04/11 12:25:27;;;;;;;6.65;1.70;;;12.70;99.90;;;;;;5051636;28;20036;-61
2023/04/11 12:27:52;;;;;;;5.88;1.27;;;12.80;99.90;;;;;;5050222;28;20451;-61
2023/04/11 12:30:18;;;;;;;7.18;1.63;;;12.70;99.90;;;;;;5052956;28;20103;-61
2023/04/11 12:32:44;;;;;;;6.88;1.88;;;12.70;99.90;;;;;;5063681;28;20051;-61
2023/04/11 12:35:11;;;;;;;7.60;1.50;;;12.60;99.90;;;;;;5065653;28;20033;-61
2023/04/11 12:37:37;;;;;;;9.68;1.65;;;12.70;99.90;;;;;;5039740;28;20040;-61
2023/04/11 12:40:11;;;;;;;10.52;1.98;;;12.70;99.90;;;;;;5057809;28;20188;-61
2023/04/11 12:42:41;;;;;;;6.47;1.60;;;12.70;99.90;;;;;;5053675;28;20127;-61
2023/04/11 12:45:08;;;;;;;8.73;1.95;;;12.60;99.90;;;;;;5055569;28;20367;-61
2023/04/11 12:47:34;;;;;;;8.57;2.38;;;12.60;99.90;;;;;;5059470;28;20391;-61
2023/04/11 12:50:01;;;;;;;7.45;1.75;;;12.60;99.90;;;;;;5068771;28;20033;-61
2023/04/11 12:52:27;;;;;;;7.65;1.85;;;12.60;99.90;;;;;;5051683;28;20029;-61
2023/04/11 12:54:53;;;;;;;8.05;1.90;;;12.60;99.90;;;;;;5060732;28;20029;-61